createdAt,value
2023-04-10T00:01:35.767Z,52.80
2023-04-10T00:04:04.920Z,52.80
2023-04-10T00:06:33.553Z,52.80
2023-04-10T00:09:03.073Z,52.80
2023-04-10T00:11:31.260Z,52.80
2023-04-10T00:13:59.378Z,52.80
2023-04-10T00:16:27.877Z,52.80
2023-04-10T00:18:56.052Z,52.80
2023-04-10T00:21:24.207Z,52.70
2023-04-10T00:23:52.492Z,52.80
2023-04-10T00:26:23.863Z,52.80
2023-04-10T00:28:52.008Z,52.80
2023-04-10T00:31:20.359Z,52.80
2023-04-10T00:33:48.597Z,52.80
2023-04-10T00:36:17.311Z,52.80
2023-04-10T00:38:45.520Z,52.80
2023-04-10T00:41:13.639Z,52.80
2023-04-10T00:43:43.310Z,52.80
2023-04-10T00:46:11.738Z,52.80
2023-04-10T00:48:40.797Z,52.80
2023-04-10T00:51:09.717Z,52.80
2023-04-10T00:53:38.082Z,52.80
2023-04-10T00:56:08.302Z,52.80
2023-04-10T00:58:36.445Z,52.80
2023-04-10T01:01:06.313Z,52.80
2023-04-10T01:03:34.705Z,52.80
2023-04-10T01:06:09.563Z,52.80
2023-04-10T01:08:48.573Z,52.80
2023-04-10T01:11:24.505Z,52.80
2023-04-10T01:14:00.383Z,52.80
2023-04-10T01:16:37.157Z,52.80
2023-04-10T01:19:14.837Z,52.80
2023-04-10T01:21:43.514Z,52.80
2023-04-10T01:24:33.028Z,52.80
2023-04-10T01:27:14.120Z,52.80
2023-04-10T01:29:48.942Z,52.80
2023-04-10T01:32:21.667Z,52.80
2023-04-10T01:34:53.299Z,52.80
2023-04-10T01:37:24.559Z,52.80
2023-04-10T01:39:58.845Z,52.80
2023-04-10T01:42:32.047Z,52.80
2023-04-10T01:45:02.939Z,52.80
2023-04-10T01:47:31.313Z,52.80
2023-04-10T01:50:00.523Z,52.80
2023-04-10T01:52:29.783Z,52.80
2023-04-10T01:55:08.970Z,52.80
2023-04-10T01:57:45.549Z,52.80
2023-04-10T02:00:15.997Z,52.80
2023-04-10T02:02:44.877Z,52.80
2023-04-10T02:05:13.118Z,52.80
2023-04-10T02:07:45.823Z,52.80
2023-04-10T02:10:22.837Z,52.80
2023-04-10T02:12:56.567Z,52.80
2023-04-10T02:15:29.152Z,52.80
2023-04-10T02:18:01.091Z,52.90
2023-04-10T02:20:29.443Z,52.80
2023-04-10T02:22:59.849Z,52.90
2023-04-10T02:25:28.124Z,52.80
2023-04-10T02:27:56.266Z,52.80
2023-04-10T02:30:25.912Z,52.80
2023-04-10T02:32:54.197Z,52.80
2023-04-10T02:35:22.276Z,52.90
2023-04-10T02:37:50.736Z,52.80
2023-04-10T02:40:19.633Z,52.80
2023-04-10T02:42:55.069Z,52.90
2023-04-10T02:45:23.461Z,52.80
2023-04-10T02:47:52.982Z,52.80
2023-04-10T02:50:21.515Z,53.00
2023-04-10T02:52:49.674Z,52.90
2023-04-10T02:55:17.923Z,52.90
2023-04-10T02:57:46.397Z,52.90
2023-04-10T03:00:15.680Z,53.00
2023-04-10T03:03:03.809Z,53.00
2023-04-10T03:05:40.252Z,53.00
2023-04-10T03:08:09.542Z,53.00
2023-04-10T03:10:37.685Z,52.90
2023-04-10T03:13:05.829Z,52.90
2023-04-10T03:15:34.031Z,53.00
2023-04-10T03:18:03.672Z,52.90
2023-04-10T03:20:32.406Z,52.90
2023-04-10T03:23:00.714Z,52.90
2023-04-10T03:25:29.026Z,52.90
2023-04-10T03:27:57.432Z,52.90
2023-04-10T03:30:25.531Z,52.90
2023-04-10T03:32:53.935Z,52.90
2023-04-10T03:35:24.250Z,52.90
2023-04-10T03:37:52.339Z,52.90
2023-04-10T03:40:21.971Z,52.90
2023-04-10T03:42:50.291Z,53.00
2023-04-10T03:45:18.766Z,53.00
2023-04-10T03:47:46.867Z,53.00
2023-04-10T03:50:19.549Z,53.00
2023-04-10T03:53:02.262Z,53.10
2023-04-10T03:55:31.551Z,53.00
2023-04-10T03:57:59.851Z,53.00
2023-04-10T04:00:28.500Z,53.00
2023-04-10T04:03:05.028Z,53.00
2023-04-10T04:05:52.219Z,53.00
2023-04-10T04:08:32.646Z,52.90
2023-04-10T04:11:07.342Z,52.90
2023-04-10T04:13:39.617Z,52.90
2023-04-10T04:16:12.133Z,52.90
2023-04-10T04:18:50.381Z,52.80
2023-04-10T04:21:22.982Z,52.70
2023-04-10T04:24:07.938Z,52.70
2023-04-10T04:27:08.922Z,52.60
2023-04-10T04:29:49.600Z,52.00
2023-04-10T04:32:24.757Z,51.50
2023-04-10T04:34:58.330Z,51.20
2023-04-10T04:37:44.457Z,51.00
2023-04-10T04:40:32.732Z,50.80
2023-04-10T04:43:39.098Z,51.50
2023-04-10T04:46:25.740Z,51.40
2023-04-10T04:49:32.244Z,51.50
2023-04-10T04:52:18.660Z,51.60
2023-04-10T04:55:13.736Z,51.60
2023-04-10T04:58:05.800Z,51.70
2023-04-10T05:00:47.503Z,51.70
2023-04-10T05:03:53.837Z,51.70
2023-04-10T05:06:42.227Z,51.80
2023-04-10T05:09:24.412Z,51.80
2023-04-10T05:12:11.311Z,51.90
2023-04-10T05:14:58.381Z,52.00
2023-04-10T05:17:35.940Z,52.00
2023-04-10T05:20:13.695Z,52.10
2023-04-10T05:23:02.033Z,52.20
2023-04-10T05:25:48.395Z,52.20
2023-04-10T05:28:34.746Z,52.30
2023-04-10T05:31:22.761Z,52.40
2023-04-10T05:34:06.236Z,52.50
2023-04-10T05:36:45.924Z,52.50
2023-04-10T05:39:21.885Z,52.60
2023-04-10T05:42:13.424Z,52.60
2023-04-10T05:44:48.597Z,52.60
2023-04-10T05:47:47.580Z,52.60
2023-04-10T05:50:30.366Z,52.50
2023-04-10T05:53:15.243Z,52.50
2023-04-10T05:55:52.392Z,52.50
2023-04-10T05:58:38.069Z,52.50
2023-04-10T06:01:08.859Z,52.50
2023-04-10T06:03:46.995Z,52.50
2023-04-10T06:06:17.072Z,52.50
2023-04-10T06:08:45.863Z,52.40
2023-04-10T06:11:14.076Z,52.40
2023-04-10T06:13:46.060Z,52.40
2023-04-10T06:16:15.224Z,52.40
2023-04-10T06:18:46.618Z,52.30
2023-04-10T06:21:14.954Z,52.30
2023-04-10T06:23:43.115Z,52.20
2023-04-10T06:26:11.184Z,52.20
2023-04-10T06:28:39.676Z,52.20
2023-04-10T06:31:08.304Z,52.20
2023-04-10T06:33:38.412Z,52.10
2023-04-10T06:36:10.664Z,52.10
2023-04-10T06:38:45.254Z,52.10
2023-04-10T06:41:14.518Z,52.00
2023-04-10T06:43:42.624Z,52.00
2023-04-10T06:46:10.783Z,52.00
2023-04-10T06:48:39.021Z,52.00
2023-04-10T06:51:09.008Z,52.00
2023-04-10T06:53:37.110Z,52.00
2023-04-10T06:56:05.950Z,52.00
2023-04-10T06:58:34.059Z,52.00
2023-04-10T07:01:04.527Z,52.00
2023-04-10T07:03:33.828Z,52.10
2023-04-10T07:06:03.360Z,52.00
2023-04-10T07:08:32.942Z,52.00
2023-04-10T07:11:01.361Z,52.00
2023-04-10T07:13:29.512Z,52.00
2023-04-10T07:15:57.646Z,52.00
2023-04-10T07:18:25.826Z,52.00
2023-04-10T07:20:54.056Z,52.00
2023-04-10T07:23:22.654Z,52.00
2023-04-10T07:25:52.849Z,52.00
2023-04-10T07:28:20.991Z,52.00
2023-04-10T07:30:50.881Z,52.00
2023-04-10T07:33:19.425Z,52.00
2023-04-10T07:35:47.750Z,52.00
2023-04-10T07:38:15.856Z,52.00
2023-04-10T07:40:43.961Z,51.90
2023-04-10T07:43:13.599Z,51.90
2023-04-10T07:45:42.661Z,52.00
2023-04-10T07:48:11.149Z,52.00
2023-04-10T07:50:39.282Z,51.90
2023-04-10T07:53:08.211Z,52.00
2023-04-10T07:55:39.515Z,52.00
2023-04-10T07:58:07.819Z,52.00
2023-04-10T08:00:37.385Z,52.00
2023-04-10T08:03:06.502Z,52.00
2023-04-10T08:05:34.887Z,52.00
2023-04-10T08:08:03.016Z,52.00
2023-04-10T08:10:31.177Z,52.00
2023-04-10T08:12:59.297Z,52.00
2023-04-10T08:15:27.390Z,52.00
2023-04-10T08:17:56.924Z,51.90
2023-04-10T08:20:25.138Z,51.90
2023-04-10T08:22:53.358Z,51.90
2023-04-10T08:25:21.482Z,51.90
2023-04-10T08:27:49.604Z,51.90
2023-04-10T08:30:17.698Z,51.90
2023-04-10T08:32:45.883Z,51.90
2023-04-10T08:35:15.447Z,51.90
2023-04-10T08:37:49.713Z,51.90
2023-04-10T08:40:23.321Z,51.90
2023-04-10T08:42:51.518Z,51.90
2023-04-10T08:45:19.634Z,51.90
2023-04-10T08:47:52.250Z,51.90
2023-04-10T08:50:22.301Z,51.90
2023-04-10T08:52:55.128Z,51.90
2023-04-10T08:55:23.368Z,51.90
2023-04-10T08:58:00.701Z,52.00
2023-04-10T09:00:31.601Z,52.00
2023-04-10T09:03:00.191Z,52.00
2023-04-10T09:05:31.123Z,52.00
2023-04-10T09:07:59.265Z,52.00
2023-04-10T09:10:27.405Z,52.00
2023-04-10T09:12:55.769Z,52.00
2023-04-10T09:15:24.057Z,52.00
2023-04-10T09:17:59.585Z,52.00
2023-04-10T09:20:30.517Z,52.00
2023-04-10T09:22:59.062Z,52.00
2023-04-10T09:25:33.543Z,52.00
2023-04-10T09:28:02.664Z,52.00
2023-04-10T09:30:41.178Z,51.90
2023-04-10T09:33:23.965Z,52.00
2023-04-10T09:35:53.540Z,51.90
2023-04-10T09:38:22.958Z,51.90
2023-04-10T09:40:52.374Z,51.90
2023-04-10T09:43:23.471Z,51.90
2023-04-10T09:45:52.983Z,51.90
2023-04-10T09:48:21.889Z,51.90
2023-04-10T09:50:50.269Z,51.90
2023-04-10T09:53:21.148Z,51.90
2023-04-10T09:55:50.372Z,51.80
2023-04-10T09:58:18.939Z,51.80
2023-04-10T10:00:48.565Z,51.70
2023-04-10T10:03:19.006Z,51.70
2023-04-10T10:05:49.533Z,51.70
2023-04-10T10:08:19.527Z,51.70
2023-04-10T10:10:49.311Z,51.70
2023-04-10T10:13:20.338Z,51.70
2023-04-10T10:15:52.791Z,51.60
2023-04-10T10:18:26.820Z,51.60
2023-04-10T10:20:55.287Z,51.60
2023-04-10T10:23:25.495Z,51.60
2023-04-10T10:25:54.876Z,51.60
2023-04-10T10:28:25.253Z,51.60
2023-04-10T10:30:54.382Z,51.60
2023-04-10T10:33:22.825Z,51.60
2023-04-10T10:35:54.630Z,51.60
2023-04-10T10:38:24.180Z,51.60
2023-04-10T10:41:02.258Z,51.60
2023-04-10T10:43:40.007Z,51.60
2023-04-10T10:46:11.900Z,51.70
2023-04-10T10:48:40.056Z,51.90
2023-04-10T10:51:08.557Z,51.90
2023-04-10T10:53:40.367Z,51.90
2023-04-10T10:56:37.149Z,51.80
2023-04-10T10:59:05.399Z,51.80
2023-04-10T11:01:33.606Z,51.70
2023-04-10T11:04:02.295Z,51.70
2023-04-10T11:06:49.812Z,51.50
2023-04-10T11:09:51.019Z,51.50
2023-04-10T11:12:21.543Z,51.20
2023-04-10T11:14:59.642Z,51.10
2023-04-10T11:17:51.257Z,50.90
2023-04-10T11:20:21.807Z,50.70
2023-04-10T11:23:10.429Z,50.30
2023-04-10T11:25:50.420Z,50.10
2023-04-10T11:28:38.365Z,49.70
2023-04-10T11:31:19.396Z,49.30
2023-04-10T11:33:48.543Z,49.20
2023-04-10T11:36:18.579Z,49.00
2023-04-10T11:38:57.298Z,49.00
2023-04-10T11:41:31.527Z,48.80
2023-04-10T11:44:00.457Z,48.60
2023-04-10T11:46:29.053Z,48.50
2023-04-10T11:48:59.333Z,48.30
2023-04-10T11:51:28.385Z,48.20
2023-04-10T11:54:09.613Z,48.10
2023-04-10T11:56:40.995Z,48.20
2023-04-10T11:59:11.200Z,48.10
2023-04-10T12:01:42.536Z,48.10
2023-04-10T12:04:18.015Z,48.10
2023-04-10T12:06:48.464Z,48.20
2023-04-10T12:09:17.879Z,48.30
2023-04-10T12:11:56.900Z,48.40
2023-04-10T12:14:30.317Z,48.30
2023-04-10T12:16:58.716Z,48.30
2023-04-10T12:19:27.442Z,48.30
2023-04-10T12:21:56.665Z,48.20
2023-04-10T12:24:44.391Z,48.20
2023-04-10T12:27:18.906Z,48.10
2023-04-10T12:29:47.503Z,48.10
2023-04-10T12:32:16.203Z,48.00
2023-04-10T12:34:50.576Z,48.00
2023-04-10T12:37:18.790Z,47.90
2023-04-10T12:39:46.909Z,47.80
2023-04-10T12:42:17.065Z,47.80
2023-04-10T12:44:57.356Z,47.70
2023-04-10T12:47:26.605Z,47.60
2023-04-10T12:50:18.389Z,47.60
2023-04-10T12:52:47.635Z,47.60
2023-04-10T12:55:17.240Z,47.50
2023-04-10T12:57:46.606Z,47.50
2023-04-10T13:00:18.652Z,47.50
2023-04-10T13:02:47.669Z,47.40
2023-04-10T13:05:16.614Z,47.40
2023-04-10T13:07:44.729Z,47.30
2023-04-10T13:10:12.864Z,47.20
2023-04-10T13:12:42.053Z,47.30
2023-04-10T13:15:11.512Z,47.30
2023-04-10T13:17:41.992Z,47.30
2023-04-10T13:20:11.274Z,47.30
2023-04-10T13:22:39.456Z,47.30
2023-04-10T13:25:08.084Z,47.40
2023-04-10T13:27:36.172Z,47.40
2023-04-10T13:30:04.390Z,47.50
2023-04-10T13:32:32.518Z,47.60
2023-04-10T13:35:01.979Z,47.70
2023-04-10T13:37:30.280Z,47.80
2023-04-10T13:39:58.396Z,47.90
2023-04-10T13:42:26.533Z,47.90
2023-04-10T13:44:54.640Z,48.00
2023-04-10T13:47:22.728Z,48.00
2023-04-10T13:49:50.918Z,48.10
2023-04-10T13:52:20.375Z,48.10
2023-04-10T13:54:48.514Z,48.10
2023-04-10T13:57:16.605Z,48.20
2023-04-10T13:59:44.713Z,48.30
2023-04-10T14:02:12.902Z,48.50
2023-04-10T14:04:41.201Z,48.60
2023-04-10T14:07:09.992Z,48.80
2023-04-10T14:09:39.571Z,48.80
2023-04-10T14:12:07.683Z,48.90
2023-04-10T14:14:35.868Z,49.00
2023-04-10T14:17:04.295Z,49.10
2023-04-10T14:19:32.938Z,49.10
2023-04-10T14:22:01.107Z,49.20
2023-04-10T14:24:29.209Z,49.20
2023-04-10T14:27:01.262Z,49.30
2023-04-10T14:32:01.009Z,49.30
2023-04-10T14:34:29.163Z,49.30
2023-04-10T14:36:57.276Z,49.40
2023-04-10T14:39:25.949Z,49.40
2023-04-10T14:41:54.075Z,49.50
2023-04-10T14:44:23.521Z,49.50
2023-04-10T14:46:51.751Z,49.50
2023-04-10T14:49:19.829Z,49.60
2023-04-10T14:51:49.670Z,49.60
2023-04-10T14:54:21.615Z,49.60
2023-04-10T14:56:49.969Z,49.80
2023-04-10T14:59:18.629Z,49.70
2023-04-10T15:01:48.210Z,49.80
2023-04-10T15:04:18.302Z,49.90
2023-04-10T15:06:46.767Z,49.90
2023-04-10T15:09:15.061Z,49.90
2023-04-10T15:11:43.215Z,50.00
2023-04-10T15:14:12.138Z,50.00
2023-04-10T15:16:40.474Z,50.00
2023-04-10T15:19:10.017Z,50.00
2023-04-10T15:21:38.154Z,50.10
2023-04-10T15:24:06.474Z,50.00
2023-04-10T15:26:35.193Z,50.10
2023-04-10T15:29:03.409Z,50.10
2023-04-10T15:31:34.311Z,50.20
2023-04-10T15:34:02.402Z,50.10
2023-04-10T15:36:32.591Z,50.20
2023-04-10T15:39:02.842Z,50.20
2023-04-10T15:41:32.685Z,50.20
2023-04-10T15:44:00.830Z,50.20
2023-04-10T15:46:32.452Z,50.20
2023-04-10T15:49:00.872Z,50.20
2023-04-10T15:51:29.026Z,50.30
2023-04-10T15:53:58.499Z,50.20
2023-04-10T15:56:29.278Z,50.20
2023-04-10T15:58:57.368Z,50.20
2023-04-10T16:01:25.740Z,50.20
2023-04-10T16:03:54.300Z,50.20
2023-04-10T16:06:25.835Z,50.30
2023-04-10T16:08:54.211Z,50.30
2023-04-10T16:11:23.711Z,50.20
2023-04-10T16:13:51.821Z,50.10
2023-04-10T16:16:19.974Z,50.00
2023-04-10T16:18:48.117Z,50.10
2023-04-10T16:21:16.385Z,50.00
2023-04-10T16:23:44.523Z,49.80
2023-04-10T16:26:12.677Z,49.70
2023-04-10T16:28:42.151Z,49.70
2023-04-10T16:31:10.359Z,49.80
2023-04-10T16:33:38.539Z,49.80
2023-04-10T16:36:08.025Z,49.80
2023-04-10T16:38:36.400Z,49.90
2023-04-10T16:41:04.810Z,49.90
2023-04-10T16:43:34.803Z,49.90
2023-04-10T16:46:07.413Z,50.00
2023-04-10T16:48:36.283Z,50.00
2023-04-10T16:51:06.337Z,50.00
2023-04-10T16:53:35.932Z,49.90
2023-04-10T16:56:05.321Z,49.90
2023-04-10T16:58:34.487Z,49.80
2023-04-10T17:01:15.785Z,49.80
2023-04-10T17:03:43.963Z,49.80
2023-04-10T17:06:12.161Z,49.80
2023-04-10T17:08:40.432Z,49.80
2023-04-10T17:11:09.005Z,49.80
2023-04-10T17:13:37.229Z,49.80
2023-04-10T17:16:05.781Z,49.90
2023-04-10T17:18:35.308Z,49.80
2023-04-10T17:21:03.540Z,49.90
2023-04-10T17:23:31.824Z,49.90
2023-04-10T17:26:00.066Z,49.90
2023-04-10T17:28:28.298Z,49.90
2023-04-10T17:30:56.472Z,50.00
2023-04-10T17:33:24.605Z,50.00
2023-04-10T17:35:57.225Z,50.00
2023-04-10T17:38:25.782Z,50.00
2023-04-10T17:40:53.955Z,50.10
2023-04-10T17:43:22.322Z,50.10
2023-04-10T17:45:50.481Z,50.10
2023-04-10T17:48:18.706Z,50.10
2023-04-10T17:50:48.164Z,50.20
2023-04-10T17:53:17.626Z,50.20
2023-04-10T17:55:46.537Z,50.20
2023-04-10T17:58:14.671Z,50.20
2023-04-10T18:00:43.656Z,50.30
2023-04-10T18:03:11.788Z,50.30
2023-04-10T18:05:39.976Z,50.30
2023-04-10T18:08:08.636Z,50.30
2023-04-10T18:10:38.125Z,50.30
2023-04-10T18:13:07.368Z,50.30
2023-04-10T18:15:35.464Z,50.30
2023-04-10T18:18:03.599Z,50.30
2023-04-10T18:20:33.284Z,50.30
2023-04-10T18:23:02.665Z,50.30
2023-04-10T18:25:32.434Z,50.30
2023-04-10T18:30:33.416Z,50.30
2023-04-10T18:33:04.564Z,50.20
2023-04-10T18:35:33.557Z,50.20
2023-04-10T18:38:01.692Z,50.20
2023-04-10T18:40:29.911Z,50.20
2023-04-10T18:42:59.717Z,50.30
2023-04-10T18:45:29.209Z,50.30
2023-04-10T18:47:57.397Z,50.30
2023-04-10T18:50:25.680Z,50.30
2023-04-10T18:52:53.902Z,50.30
2023-04-10T18:55:22.092Z,50.30
2023-04-10T18:57:50.244Z,50.30
2023-04-10T19:00:18.697Z,50.40
2023-04-10T19:02:48.415Z,50.40
2023-04-10T19:05:16.767Z,50.40
2023-04-10T19:07:56.732Z,50.50
2023-04-10T19:10:31.657Z,50.50
2023-04-10T19:12:59.786Z,50.50
2023-04-10T19:15:27.899Z,50.60
2023-04-10T19:17:57.607Z,50.60
2023-04-10T19:20:48.844Z,50.60
2023-04-10T19:23:14.001Z,50.60
2023-04-10T19:25:43.606Z,50.60
2023-04-10T19:28:11.737Z,50.60
2023-04-10T19:30:39.902Z,50.60
2023-04-10T19:33:09.460Z,50.60
2023-04-10T19:35:37.625Z,50.60
2023-04-10T19:38:05.887Z,50.60
2023-04-10T19:40:34.000Z,50.70
2023-04-10T19:43:02.593Z,50.70
2023-04-10T19:45:32.441Z,50.70
2023-04-10T19:48:01.168Z,50.70
2023-04-10T19:50:31.217Z,50.70
2023-04-10T19:52:59.834Z,50.70
2023-04-10T19:55:29.368Z,50.70
2023-04-10T19:57:57.586Z,50.70
2023-04-10T20:00:25.740Z,50.60
2023-04-10T20:02:54.036Z,50.60
2023-04-10T20:05:22.470Z,50.60
2023-04-10T20:07:51.925Z,50.60
2023-04-10T20:10:20.645Z,50.60
2023-04-10T20:12:48.732Z,50.60
2023-04-10T20:15:17.548Z,50.60
2023-04-10T20:17:45.715Z,50.60
2023-04-10T20:20:13.855Z,50.60
2023-04-10T20:22:41.994Z,50.70
2023-04-10T20:25:11.772Z,50.70
2023-04-10T20:27:39.844Z,50.70
2023-04-10T20:30:09.937Z,50.70
2023-04-10T20:32:38.791Z,50.70
2023-04-10T20:35:08.251Z,50.70
2023-04-10T20:37:36.489Z,50.80
2023-04-10T20:40:04.968Z,50.80
2023-04-10T20:42:34.501Z,50.80
2023-04-10T20:45:02.844Z,50.80
2023-04-10T20:47:31.101Z,50.80
2023-04-10T20:49:59.223Z,50.80
2023-04-10T20:52:27.413Z,50.80
2023-04-10T20:54:55.519Z,50.80
2023-04-10T20:57:23.841Z,50.90
2023-04-10T20:59:53.546Z,50.90
2023-04-10T21:02:21.834Z,50.90
2023-04-10T21:04:51.567Z,50.90
2023-04-10T21:07:19.696Z,50.90
2023-04-10T21:09:47.834Z,50.90
2023-04-10T21:12:15.945Z,50.90
2023-04-10T21:14:44.064Z,50.90
2023-04-10T21:17:13.571Z,50.90
2023-04-10T21:19:41.669Z,50.90
2023-04-10T21:22:10.247Z,50.90
2023-04-10T21:24:38.446Z,50.90
2023-04-10T21:27:07.426Z,50.90
2023-04-10T21:29:35.714Z,50.90
2023-04-10T21:32:03.919Z,50.90
2023-04-10T21:34:33.398Z,50.90
2023-04-10T21:37:01.554Z,50.90
2023-04-10T21:39:30.525Z,50.90
2023-04-10T21:41:58.664Z,50.90
2023-04-10T21:44:26.804Z,50.90
2023-04-10T21:46:54.894Z,50.90
2023-04-10T21:49:23.023Z,50.90
2023-04-10T21:51:53.152Z,50.90
2023-04-10T21:54:21.378Z,50.90
2023-04-10T21:56:49.478Z,50.90
2023-04-10T21:59:17.555Z,50.90
2023-04-10T22:01:45.789Z,50.90
2023-04-10T22:04:14.241Z,51.00
2023-04-10T22:06:42.435Z,51.00
2023-04-10T22:09:11.902Z,51.00
2023-04-10T22:11:41.035Z,51.00
2023-04-10T22:14:16.566Z,51.00
2023-04-10T22:16:46.383Z,51.00
2023-04-10T22:19:14.521Z,51.00
2023-04-10T22:21:42.682Z,51.00
2023-04-10T22:24:12.190Z,51.00
2023-04-10T22:26:42.071Z,51.10
2023-04-10T22:29:10.256Z,51.10
2023-04-10T22:31:38.410Z,51.10
2023-04-10T22:34:06.562Z,51.10
2023-04-10T22:36:34.757Z,51.10
2023-04-10T22:39:03.089Z,51.10
2023-04-10T22:41:33.163Z,51.10
2023-04-10T22:44:01.316Z,51.10
2023-04-10T22:46:29.585Z,51.10
2023-04-10T22:48:58.084Z,51.10
2023-04-10T22:51:26.763Z,51.10
2023-04-10T22:53:55.111Z,51.20
2023-04-10T22:56:26.456Z,51.20
2023-04-10T22:58:56.426Z,51.20
2023-04-10T23:01:24.788Z,51.20
2023-04-10T23:03:53.980Z,51.20
2023-04-10T23:06:22.196Z,51.20
2023-04-10T23:08:52.296Z,51.20
2023-04-10T23:11:20.541Z,51.20
2023-04-10T23:13:48.771Z,51.20
2023-04-10T23:16:18.353Z,51.20
2023-04-10T23:18:46.454Z,51.20
2023-04-10T23:21:14.591Z,51.20
2023-04-10T23:23:42.707Z,51.20
2023-04-10T23:26:11.822Z,51.20
2023-04-10T23:28:40.004Z,51.20
2023-04-10T23:31:09.062Z,51.20
2023-04-10T23:33:38.729Z,51.20
2023-04-10T23:36:07.625Z,51.20
2023-04-10T23:38:35.824Z,51.20
2023-04-10T23:41:04.022Z,51.20
2023-04-10T23:43:32.112Z,51.20
2023-04-10T23:46:00.367Z,51.20
2023-04-10T23:48:28.462Z,51.20
2023-04-10T23:51:06.158Z,51.30
2023-04-10T23:53:34.487Z,51.30
2023-04-10T23:56:02.680Z,51.30
2023-04-10T23:58:30.904Z,51.30
